createdAt,value
2022-09-12T00:01:21.551Z,18.25
2022-09-12T00:03:48.313Z,18.22
2022-09-12T00:06:23.223Z,18.20
2022-09-12T00:08:50.846Z,18.16
2022-09-12T00:11:17.613Z,18.14
2022-09-12T00:13:44.342Z,18.12
2022-09-12T00:16:16.816Z,18.10
2022-09-12T00:18:45.157Z,18.06
2022-09-12T00:21:11.627Z,18.03
2022-09-12T00:23:38.021Z,18.01
2022-09-12T00:26:06.614Z,17.97
2022-09-12T00:28:38.410Z,17.97
2022-09-12T00:31:07.342Z,17.93
2022-09-12T00:33:34.870Z,17.89
2022-09-12T00:36:05.425Z,17.88
2022-09-12T00:38:32.192Z,17.84
2022-09-12T00:40:58.566Z,17.82
2022-09-12T00:43:27.786Z,17.80
2022-09-12T00:45:54.674Z,17.76
2022-09-12T00:48:29.165Z,17.75
2022-09-12T00:50:55.556Z,17.72
2022-09-12T00:53:21.998Z,17.68
2022-09-12T00:55:51.816Z,17.67
2022-09-12T00:58:37.799Z,17.66
2022-09-12T01:01:04.366Z,17.61
2022-09-12T01:03:31.137Z,17.58
2022-09-12T01:06:13.371Z,17.57
2022-09-12T01:08:41.195Z,17.50
2022-09-12T01:11:11.188Z,17.49
2022-09-12T01:13:37.825Z,17.47
2022-09-12T01:16:06.065Z,17.43
2022-09-12T01:19:05.990Z,17.42
2022-09-12T01:22:06.149Z,17.40
2022-09-12T01:24:54.395Z,17.37
2022-09-12T01:27:46.960Z,17.34
2022-09-12T01:30:22.186Z,17.30
2022-09-12T01:33:00.749Z,17.26
2022-09-12T01:35:40.862Z,17.26
2022-09-12T01:38:13.974Z,17.23
2022-09-12T01:40:51.894Z,17.20
2022-09-12T01:43:26.760Z,17.17
2022-09-12T01:45:58.299Z,17.15
2022-09-12T01:48:31.181Z,17.13
2022-09-12T01:51:09.378Z,17.10
2022-09-12T01:53:42.268Z,17.07
2022-09-12T01:56:22.669Z,17.06
2022-09-12T01:59:03.970Z,17.02
2022-09-12T02:01:39.384Z,17.00
2022-09-12T02:04:14.938Z,16.96
2022-09-12T02:06:54.297Z,16.96
2022-09-12T02:09:26.346Z,16.93
2022-09-12T02:11:58.777Z,16.91
2022-09-12T02:14:32.451Z,16.89
2022-09-12T02:17:00.392Z,16.88
2022-09-12T02:19:34.269Z,16.86
2022-09-12T02:22:04.337Z,16.85
2022-09-12T02:24:39.340Z,16.83
2022-09-12T02:27:23.677Z,16.82
2022-09-12T02:29:50.562Z,16.79
2022-09-12T02:32:38.105Z,16.78
2022-09-12T02:35:46.477Z,16.77
2022-09-12T02:38:29.832Z,16.74
2022-09-12T02:40:56.688Z,16.70
2022-09-12T02:43:23.135Z,16.67
2022-09-12T02:45:49.739Z,16.64
2022-09-12T02:48:26.230Z,16.62
2022-09-12T02:50:53.932Z,16.58
2022-09-12T02:53:21.078Z,16.56
2022-09-12T02:55:47.982Z,16.53
2022-09-12T02:58:22.606Z,16.52
2022-09-12T03:01:16.543Z,16.49
2022-09-12T03:04:04.907Z,16.47
2022-09-12T03:06:51.554Z,16.44
2022-09-12T03:09:22.435Z,16.42
2022-09-12T03:12:09.892Z,16.39
2022-09-12T03:14:52.252Z,16.36
2022-09-12T03:17:43.807Z,16.33
2022-09-12T03:20:16.901Z,16.32
2022-09-12T03:22:54.316Z,16.29
2022-09-12T03:25:28.271Z,16.28
2022-09-12T03:28:16.205Z,16.26
2022-09-12T03:30:48.512Z,16.23
2022-09-12T03:33:17.823Z,16.21
2022-09-12T03:35:44.649Z,16.18
2022-09-12T03:38:11.090Z,16.17
2022-09-12T03:40:38.337Z,16.16
2022-09-12T03:43:06.478Z,16.14
2022-09-12T03:45:32.905Z,16.12
2022-09-12T03:47:59.847Z,16.11
2022-09-12T03:50:26.291Z,16.09
2022-09-12T03:52:52.683Z,16.10
2022-09-12T03:55:19.382Z,16.07
2022-09-12T03:57:46.045Z,16.04
2022-09-12T04:00:17.699Z,16.02
2022-09-12T04:02:46.083Z,16.00
2022-09-12T04:05:12.482Z,15.98
2022-09-12T04:07:38.847Z,15.96
2022-09-12T04:10:05.814Z,15.94
2022-09-12T04:12:32.227Z,15.92
2022-09-12T04:14:58.598Z,15.90
2022-09-12T04:17:25.026Z,15.88
2022-09-12T04:19:51.394Z,15.86
2022-09-12T04:22:17.786Z,15.84
2022-09-12T04:24:44.187Z,15.81
2022-09-12T04:27:10.593Z,15.79
2022-09-12T04:29:36.959Z,15.77
2022-09-12T04:32:04.173Z,15.75
2022-09-12T04:34:32.053Z,15.72
2022-09-12T04:36:58.464Z,15.71
2022-09-12T04:39:25.000Z,15.70
2022-09-12T04:41:51.950Z,15.65
2022-09-12T04:44:18.391Z,15.64
2022-09-12T04:46:46.969Z,15.63
2022-09-12T04:49:16.215Z,15.62
2022-09-12T04:51:43.118Z,15.60
2022-09-12T04:54:18.417Z,15.60
2022-09-12T04:56:47.382Z,15.58
2022-09-12T04:59:16.370Z,15.56
2022-09-12T05:01:43.297Z,15.55
2022-09-12T05:04:11.110Z,15.55
2022-09-12T05:06:38.591Z,15.56
2022-09-12T05:09:07.014Z,15.56
2022-09-12T05:12:02.787Z,15.58
2022-09-12T05:14:22.689Z,15.59
2022-09-12T05:16:49.962Z,15.61
2022-09-12T05:19:16.772Z,15.63
2022-09-12T05:21:43.149Z,15.65
2022-09-12T05:24:10.547Z,15.67
2022-09-12T05:26:36.943Z,15.68
2022-09-12T05:29:04.252Z,15.72
2022-09-12T05:31:30.658Z,15.76
2022-09-12T05:33:57.634Z,15.78
2022-09-12T05:36:26.855Z,15.83
2022-09-12T05:38:54.080Z,15.86
2022-09-12T05:41:25.505Z,15.90
2022-09-12T05:43:54.387Z,15.94
2022-09-12T05:46:22.919Z,15.97
2022-09-12T05:48:55.053Z,16.00
2022-09-12T05:51:26.699Z,16.06
2022-09-12T05:53:55.816Z,16.09
2022-09-12T05:56:24.624Z,16.15
2022-09-12T05:58:59.686Z,16.20
2022-09-12T06:01:27.581Z,16.23
2022-09-12T06:03:57.703Z,16.29
2022-09-12T06:06:29.094Z,16.35
2022-09-12T06:09:01.278Z,16.42
2022-09-12T06:11:29.731Z,16.46
2022-09-12T06:13:58.115Z,16.52
2022-09-12T06:16:27.512Z,16.59
2022-09-12T06:18:59.569Z,16.66
2022-09-12T06:21:26.911Z,16.72
2022-09-12T06:23:58.613Z,16.79
2022-09-12T06:26:26.120Z,16.86
2022-09-12T06:28:54.274Z,16.94
2022-09-12T06:31:25.084Z,17.02
2022-09-12T06:33:53.346Z,17.10
2022-09-12T06:36:25.858Z,17.20
2022-09-12T06:39:04.199Z,17.30
2022-09-12T06:41:32.146Z,17.40
2022-09-12T06:43:59.875Z,17.50
2022-09-12T06:46:27.562Z,17.62
2022-09-12T06:48:56.413Z,17.75
2022-09-12T06:51:23.249Z,17.85
2022-09-12T06:53:57.411Z,17.99
2022-09-12T06:56:27.035Z,18.10
2022-09-12T06:58:56.342Z,18.22
2022-09-12T07:01:27.765Z,18.33
2022-09-12T07:03:57.738Z,18.47
2022-09-12T07:06:31.480Z,18.59
2022-09-12T07:09:02.857Z,18.73
2022-09-12T07:11:34.833Z,18.84
2022-09-12T07:14:14.033Z,18.98
2022-09-12T07:16:40.839Z,19.06
2022-09-12T07:19:08.676Z,19.17
2022-09-12T07:21:39.532Z,19.26
2022-09-12T07:24:06.630Z,19.35
2022-09-12T07:26:33.081Z,19.44
2022-09-12T07:29:13.241Z,19.50
2022-09-12T07:31:45.830Z,19.58
2022-09-12T07:34:12.212Z,19.66
2022-09-12T07:36:39.153Z,19.73
2022-09-12T07:39:05.970Z,19.79
2022-09-12T07:41:33.950Z,19.86
2022-09-12T07:44:01.933Z,19.94
2022-09-12T07:46:29.824Z,20.03
2022-09-12T07:48:58.702Z,20.11
2022-09-12T07:51:26.603Z,20.18
2022-09-12T07:53:53.069Z,20.28
2022-09-12T07:56:22.046Z,20.36
2022-09-12T07:58:50.479Z,20.43
2022-09-12T08:01:19.442Z,20.51
2022-09-12T08:03:49.082Z,20.59
2022-09-12T08:06:20.277Z,20.67
2022-09-12T08:08:47.859Z,20.73
2022-09-12T08:11:16.311Z,20.81
2022-09-12T08:13:43.387Z,20.89
2022-09-12T08:16:15.085Z,20.99
2022-09-12T08:18:41.613Z,21.05
2022-09-12T08:21:14.354Z,21.15
2022-09-12T08:23:44.511Z,21.24
2022-09-12T08:26:12.234Z,21.32
2022-09-12T08:28:42.010Z,21.43
2022-09-12T08:31:11.171Z,21.53
2022-09-12T08:33:38.175Z,21.61
2022-09-12T08:36:06.445Z,21.71
2022-09-12T08:38:34.324Z,21.80
2022-09-12T08:41:11.651Z,21.91
2022-09-12T08:43:46.002Z,22.03
2022-09-12T08:46:19.444Z,22.12
2022-09-12T08:48:50.127Z,22.21
2022-09-12T08:51:20.448Z,22.33
2022-09-12T08:53:51.549Z,22.42
2022-09-12T08:56:18.025Z,22.50
2022-09-12T08:58:46.210Z,22.57
2022-09-12T09:01:33.138Z,22.66
2022-09-12T09:04:14.862Z,22.74
2022-09-12T09:06:52.189Z,22.81
2022-09-12T09:09:42.903Z,22.87
2022-09-12T09:12:46.075Z,22.95
2022-09-12T09:15:33.243Z,23.03
2022-09-12T09:18:10.832Z,23.09
2022-09-12T09:20:57.368Z,23.18
2022-09-12T09:23:35.887Z,23.23
2022-09-12T09:26:17.857Z,23.31
2022-09-12T09:28:52.245Z,23.35
2022-09-12T09:31:23.611Z,23.40
2022-09-12T09:33:52.561Z,23.44
2022-09-12T09:36:42.032Z,23.50
2022-09-12T09:39:23.558Z,23.57
2022-09-12T09:42:07.706Z,23.62
2022-09-12T09:44:34.249Z,23.69
2022-09-12T09:47:01.866Z,23.73
2022-09-12T09:49:32.040Z,23.77
2022-09-12T09:52:00.926Z,23.81
2022-09-12T09:54:37.679Z,23.89
2022-09-12T09:57:05.099Z,23.94
2022-09-12T09:59:33.692Z,24.01
2022-09-12T10:02:12.120Z,24.12
2022-09-12T10:04:54.550Z,24.22
2022-09-12T10:07:22.330Z,24.28
2022-09-12T10:10:06.853Z,24.41
2022-09-12T10:12:33.589Z,24.49
2022-09-12T10:15:03.185Z,24.61
2022-09-12T10:17:39.860Z,24.71
2022-09-12T10:20:37.961Z,24.85
2022-09-12T10:23:21.371Z,24.97
2022-09-12T10:26:05.148Z,25.08
2022-09-12T10:28:44.661Z,25.19
2022-09-12T10:31:16.591Z,25.26
2022-09-12T10:33:53.199Z,25.33
2022-09-12T10:36:20.948Z,25.36
2022-09-12T10:39:00.659Z,25.42
2022-09-12T10:41:37.009Z,25.45
2022-09-12T10:44:09.838Z,25.48
2022-09-12T10:46:36.251Z,25.51
2022-09-12T10:49:14.817Z,25.57
2022-09-12T10:51:41.375Z,25.61
2022-09-12T10:54:11.579Z,25.67
2022-09-12T10:56:49.654Z,25.73
2022-09-12T10:59:24.296Z,25.78
2022-09-12T11:01:59.922Z,25.86
2022-09-12T11:04:47.548Z,25.92
2022-09-12T11:07:26.057Z,25.96
2022-09-12T11:10:14.549Z,26.03
2022-09-12T11:12:43.720Z,26.09
2022-09-12T11:15:48.527Z,26.16
2022-09-12T11:18:42.286Z,26.22
2022-09-12T11:22:09.270Z,26.27
2022-09-12T11:24:59.830Z,26.34
2022-09-12T11:41:38.283Z,26.20
2022-09-12T11:44:29.391Z,26.40
2022-09-12T11:46:55.786Z,26.55
2022-09-12T11:49:43.719Z,26.66
2022-09-12T11:52:19.936Z,26.71
2022-09-12T11:55:03.732Z,26.74
2022-09-12T11:57:44.102Z,26.76
2022-09-12T12:00:26.041Z,26.78
2022-09-12T12:03:13.874Z,26.79
2022-09-12T12:05:52.114Z,26.82
2022-09-12T12:08:20.922Z,26.83
2022-09-12T12:10:59.738Z,26.90
2022-09-12T12:13:45.111Z,26.93
2022-09-12T12:16:23.031Z,26.99
2022-09-12T12:18:56.135Z,27.02
2022-09-12T12:21:41.358Z,27.06
2022-09-12T12:24:07.736Z,27.09
2022-09-12T12:26:40.493Z,27.14
2022-09-12T12:29:23.458Z,27.18
2022-09-12T12:31:59.127Z,27.23
2022-09-12T12:34:32.972Z,27.28
2022-09-12T12:37:20.148Z,27.33
2022-09-12T12:39:50.326Z,27.40
2022-09-12T12:42:34.974Z,27.48
2022-09-12T12:45:08.232Z,27.54
2022-09-12T12:47:37.647Z,27.59
2022-09-12T12:50:10.069Z,27.64
2022-09-12T12:52:57.422Z,27.70
2022-09-12T12:55:27.519Z,27.74
2022-09-12T12:57:56.810Z,27.78
2022-09-12T13:00:29.970Z,27.82
2022-09-12T13:03:02.553Z,27.84
2022-09-12T13:05:37.991Z,27.87
2022-09-12T13:08:10.843Z,27.92
2022-09-12T13:10:38.625Z,27.94
2022-09-12T13:13:08.693Z,27.99
2022-09-12T13:15:38.248Z,28.04
2022-09-12T13:18:13.240Z,28.09
2022-09-12T13:21:13.327Z,28.13
2022-09-12T13:23:40.658Z,28.14
2022-09-12T13:26:12.748Z,28.15
2022-09-12T13:28:39.403Z,28.12
2022-09-12T13:31:17.533Z,28.11
2022-09-12T13:33:59.995Z,28.11
2022-09-12T13:36:45.235Z,28.11
2022-09-12T13:39:40.441Z,28.11
2022-09-12T13:42:26.719Z,28.11
2022-09-12T13:44:56.810Z,28.14
2022-09-12T13:47:29.382Z,28.15
2022-09-12T13:49:57.151Z,28.16
2022-09-12T13:52:28.060Z,28.19
2022-09-12T13:54:58.384Z,28.21
2022-09-12T13:57:39.043Z,28.26
2022-09-12T14:00:12.878Z,28.29
2022-09-12T14:02:40.041Z,28.33
2022-09-12T14:05:26.862Z,28.38
2022-09-12T14:08:01.386Z,28.40
2022-09-12T14:10:28.223Z,28.42
2022-09-12T14:12:57.187Z,28.44
2022-09-12T14:15:27.193Z,28.48
2022-09-12T14:18:01.127Z,28.48
2022-09-12T14:20:33.199Z,28.50
2022-09-12T14:23:02.469Z,28.50
2022-09-12T14:25:41.388Z,28.53
2022-09-12T14:28:13.211Z,28.54
2022-09-12T14:30:39.636Z,28.55
2022-09-12T14:33:11.895Z,28.55
2022-09-12T14:35:43.475Z,28.55
2022-09-12T14:38:16.020Z,28.55
2022-09-12T14:40:48.619Z,28.55
2022-09-12T14:43:28.701Z,28.56
2022-09-12T14:45:59.671Z,28.53
2022-09-12T14:48:29.803Z,28.51
2022-09-12T14:50:56.485Z,28.48
2022-09-12T14:53:33.477Z,28.46
2022-09-12T14:56:08.860Z,28.43
2022-09-12T14:58:36.163Z,28.42
2022-09-12T15:01:05.532Z,28.42
2022-09-12T15:03:33.651Z,28.40
2022-09-12T15:06:03.060Z,28.41
2022-09-12T15:08:30.653Z,28.40
2022-09-12T15:10:58.019Z,28.39
2022-09-12T15:13:26.412Z,28.38
2022-09-12T15:16:00.293Z,28.37
2022-09-12T15:18:29.055Z,28.35
2022-09-12T15:21:01.686Z,28.34
2022-09-12T15:23:55.377Z,28.35
2022-09-12T15:26:23.922Z,28.33
2022-09-12T15:28:51.181Z,28.30
2022-09-12T15:31:29.293Z,28.30
2022-09-12T15:33:57.253Z,28.28
2022-09-12T15:36:24.818Z,28.28
2022-09-12T15:38:52.875Z,28.28
2022-09-12T15:41:22.290Z,28.29
2022-09-12T15:43:49.086Z,28.28
2022-09-12T15:46:17.307Z,28.28
2022-09-12T15:48:43.883Z,28.26
2022-09-12T15:51:15.780Z,28.24
2022-09-12T15:53:43.655Z,28.21
2022-09-12T15:56:10.321Z,28.18
2022-09-12T15:58:49.817Z,28.15
2022-09-12T16:01:24.083Z,28.11
2022-09-12T16:03:50.528Z,28.08
2022-09-12T16:06:17.011Z,28.04
2022-09-12T16:08:43.476Z,27.99
2022-09-12T16:11:21.838Z,27.99
2022-09-12T16:13:48.830Z,27.97
2022-09-12T16:16:15.308Z,27.98
2022-09-12T16:18:42.267Z,28.00
2022-09-12T16:21:12.782Z,28.01
2022-09-12T16:23:47.323Z,28.06
2022-09-12T16:26:14.346Z,28.08
2022-09-12T16:28:41.029Z,28.11
2022-09-12T16:31:09.240Z,28.15
2022-09-12T16:33:37.547Z,28.17
2022-09-12T16:36:12.086Z,28.20
2022-09-12T16:38:46.556Z,28.23
2022-09-12T16:41:14.170Z,28.24
2022-09-12T16:43:42.471Z,28.25
2022-09-12T16:46:15.953Z,28.27
2022-09-12T16:48:49.317Z,28.26
2022-09-12T16:51:20.511Z,28.27
2022-09-12T16:53:47.249Z,28.26
2022-09-12T16:56:13.877Z,28.26
2022-09-12T16:58:42.168Z,28.26
2022-09-12T17:01:11.405Z,28.24
2022-09-12T17:03:38.292Z,28.25
2022-09-12T17:06:10.181Z,28.25
2022-09-12T17:08:41.470Z,28.28
2022-09-12T17:11:11.233Z,28.26
2022-09-12T17:14:00.565Z,28.23
2022-09-12T17:16:26.470Z,28.20
2022-09-12T17:18:53.390Z,28.14
2022-09-12T17:21:21.179Z,28.09
2022-09-12T17:23:48.047Z,28.02
2022-09-12T17:26:15.028Z,27.93
2022-09-12T17:28:41.895Z,27.84
2022-09-12T17:31:11.505Z,27.76
2022-09-12T17:33:39.656Z,27.66
2022-09-12T17:36:12.062Z,27.56
2022-09-12T17:38:42.611Z,27.44
2022-09-12T17:41:15.389Z,27.32
2022-09-12T17:43:42.429Z,27.20
2022-09-12T17:46:08.870Z,27.09
2022-09-12T17:48:35.621Z,26.97
2022-09-12T17:51:14.724Z,26.85
2022-09-12T17:53:42.273Z,26.71
2022-09-12T17:56:10.127Z,26.58
2022-09-12T17:58:36.995Z,26.46
2022-09-12T18:01:25.217Z,26.34
2022-09-12T18:03:56.003Z,26.23
2022-09-12T18:06:23.666Z,26.09
2022-09-12T18:08:50.837Z,25.98
2022-09-12T18:11:17.638Z,25.86
2022-09-12T18:13:44.394Z,25.75
2022-09-12T18:16:12.835Z,25.64
2022-09-12T18:18:39.580Z,25.53
2022-09-12T18:21:07.938Z,25.42
2022-09-12T18:23:35.088Z,25.31
2022-09-12T18:26:07.795Z,25.22
2022-09-12T18:28:39.954Z,25.12
2022-09-12T18:31:13.899Z,25.03
2022-09-12T18:33:41.173Z,24.92
2022-09-12T18:38:41.880Z,24.71
2022-09-12T18:41:10.869Z,24.64
2022-09-12T18:43:38.018Z,24.56
2022-09-12T18:46:06.105Z,24.47
2022-09-12T18:48:33.337Z,24.39
2022-09-12T18:51:09.789Z,24.33
2022-09-12T18:53:36.892Z,24.24
2022-09-12T18:56:08.570Z,24.18
2022-09-12T18:58:36.223Z,24.09
2022-09-12T19:01:29.598Z,24.03
2022-09-12T19:03:56.763Z,23.94
2022-09-12T19:06:28.775Z,23.89
2022-09-12T19:08:57.082Z,23.82
2022-09-12T19:11:24.369Z,23.76
2022-09-12T19:13:52.384Z,23.69
2022-09-12T19:16:21.779Z,23.63
2022-09-12T19:18:49.666Z,23.57
2022-09-12T19:21:24.847Z,23.52
2022-09-12T19:23:53.423Z,23.45
2022-09-12T19:26:21.375Z,23.40
2022-09-12T19:28:48.456Z,23.33
2022-09-12T19:31:18.862Z,23.28
2022-09-12T19:33:45.792Z,23.21
2022-09-12T19:36:34.027Z,23.16
2022-09-12T19:39:01.137Z,23.09
2022-09-12T19:41:27.633Z,23.05
2022-09-12T19:43:55.341Z,23.00
2022-09-12T19:46:23.847Z,22.95
2022-09-12T19:48:52.169Z,22.89
2022-09-12T19:51:19.863Z,22.86
2022-09-12T19:53:46.781Z,22.82
2022-09-12T19:56:14.413Z,22.78
2022-09-12T19:58:43.208Z,22.74
2022-09-12T20:01:12.634Z,22.70
2022-09-12T20:03:39.659Z,22.66
2022-09-12T20:06:09.332Z,22.62
2022-09-12T20:08:37.755Z,22.57
2022-09-12T20:11:04.284Z,22.55
2022-09-12T20:13:30.790Z,22.51
2022-09-12T20:16:05.768Z,22.49
2022-09-12T20:18:32.215Z,22.46
2022-09-12T20:20:58.637Z,22.42
2022-09-12T20:23:25.154Z,22.39
2022-09-12T20:25:51.584Z,22.35
2022-09-12T20:28:17.990Z,22.32
2022-09-12T20:30:44.441Z,22.29
2022-09-12T20:33:10.861Z,22.25
2022-09-12T20:35:37.311Z,22.22
2022-09-12T20:38:03.768Z,22.19
2022-09-12T20:40:30.255Z,22.17
2022-09-12T20:42:56.655Z,22.15
2022-09-12T20:45:23.087Z,22.13
2022-09-12T20:47:49.639Z,22.11
2022-09-12T20:50:16.153Z,22.08
2022-09-12T20:52:42.557Z,22.08
2022-09-12T20:55:09.887Z,22.07
2022-09-12T20:57:36.326Z,22.06
2022-09-12T21:00:03.226Z,22.06
2022-09-12T21:02:29.835Z,22.05
2022-09-12T21:04:57.346Z,22.04
2022-09-12T21:07:23.775Z,22.03
2022-09-12T21:09:50.395Z,22.03
2022-09-12T21:12:16.789Z,22.01
2022-09-12T21:14:43.214Z,22.00
2022-09-12T21:17:09.695Z,21.99
2022-09-12T21:19:36.264Z,21.98
2022-09-12T21:22:02.899Z,21.95
2022-09-12T21:24:29.637Z,21.94
2022-09-12T21:26:57.413Z,21.91
2022-09-12T21:29:25.773Z,21.88
2022-09-12T21:31:52.207Z,21.86
2022-09-12T21:34:18.664Z,21.84
2022-09-12T21:36:45.095Z,21.80
2022-09-12T21:39:11.495Z,21.77
2022-09-12T21:41:37.982Z,21.72
2022-09-12T21:44:04.419Z,21.68
2022-09-12T21:46:30.876Z,21.64
2022-09-12T21:48:57.541Z,21.59
2022-09-12T21:51:23.986Z,21.55
2022-09-12T21:53:50.417Z,21.51
2022-09-12T21:56:16.946Z,21.46
2022-09-12T21:58:43.415Z,21.42
2022-09-12T22:01:12.362Z,21.39
2022-09-12T22:03:39.015Z,21.37
2022-09-12T22:06:07.225Z,21.34
2022-09-12T22:08:37.476Z,21.33
2022-09-12T22:11:09.490Z,21.30
2022-09-12T22:13:42.798Z,21.28
2022-09-12T22:16:10.183Z,21.25
2022-09-12T22:18:38.053Z,21.23
2022-09-12T22:21:07.504Z,21.21
2022-09-12T22:23:52.612Z,21.19
2022-09-12T22:26:19.319Z,21.18
2022-09-12T22:28:47.621Z,21.17
2022-09-12T22:31:14.857Z,21.17
2022-09-12T22:33:41.404Z,21.15
2022-09-12T22:36:09.360Z,21.14
2022-09-12T22:38:36.370Z,21.14
2022-09-12T22:41:05.089Z,21.15
2022-09-12T22:43:33.447Z,21.14
2022-09-12T22:45:59.972Z,21.14
2022-09-12T22:48:26.967Z,21.14
2022-09-12T22:50:53.442Z,21.15
2022-09-12T22:53:19.870Z,21.14
2022-09-12T22:55:46.499Z,21.14
2022-09-12T22:58:12.883Z,21.14
2022-09-12T23:00:39.328Z,21.14
2022-09-12T23:03:05.796Z,21.13
2022-09-12T23:05:32.309Z,21.12
2022-09-12T23:07:58.974Z,21.12
2022-09-12T23:10:27.057Z,21.12
2022-09-12T23:12:54.868Z,21.10
2022-09-12T23:15:21.562Z,21.10
2022-09-12T23:17:47.978Z,21.10
2022-09-12T23:20:14.452Z,21.09
2022-09-12T23:22:40.921Z,21.07
2022-09-12T23:25:07.781Z,21.08
2022-09-12T23:27:35.335Z,21.07
2022-09-12T23:30:02.680Z,21.06
2022-09-12T23:32:30.055Z,21.07
2022-09-12T23:34:56.573Z,21.07
2022-09-12T23:37:23.014Z,21.07
2022-09-12T23:39:49.725Z,21.08
2022-09-12T23:42:16.819Z,21.08
2022-09-12T23:44:43.335Z,21.08
2022-09-12T23:47:09.874Z,21.06
2022-09-12T23:49:36.346Z,21.06
2022-09-12T23:52:02.943Z,21.04
2022-09-12T23:54:29.381Z,21.03
2022-09-12T23:56:55.852Z,21.03
2022-09-12T23:59:22.258Z,21.03
